Time;durP1;ratioP1;P1;durP2;ratioP2;P2;SDS_P1;SDS_P2;PMS_P1;PMS_P2;Temp;Humidity;BMP_temperature;BMP_pressure;BME280_temperature;BME280_humidity;BME280_pressure;Samples;Min_cycle;Max_cycle;Signal;HPM_P1;HPM_P2
2022/11/14 00:00:35;;;;;;;5.55;4.22;;;;;;;;;;4804726;29;20410;-71
2022/11/14 00:03:24;;;;;;;5.63;4.50;;;;;;;;;;4802487;29;20503;-72
2022/11/14 00:06:12;;;;;;;7.13;4.55;;;;;;;;;;4800118;29;20058;-72
2022/11/14 00:09:00;;;;;;;7.57;4.50;;;;;;;;;;4803897;29;20066;-72
2022/11/14 00:11:49;;;;;;;4.20;3.80;;;;;;;;;;4802686;29;20050;-73
2022/11/14 00:14:38;;;;;;;6.18;4.28;;;;;;;;;;4805834;29;20046;-73
2022/11/14 00:17:26;;;;;;;6.97;4.57;;;;;;;;;;4803671;29;20391;-72
2022/11/14 00:20:14;;;;;;;5.40;4.00;;;;;;;;;;4801916;29;20495;-72
2022/11/14 00:23:03;;;;;;;6.90;4.85;;;;;;;;;;4804858;29;20059;-72
2022/11/14 00:25:51;;;;;;;10.25;4.82;;;;;;;;;;4802698;29;20059;-71
2022/11/14 00:28:39;;;;;;;8.35;3.92;;;;;;;;;;4800921;29;20411;-71
2022/11/14 00:31:27;;;;;;;7.55;4.20;;;;;;;;;;4803747;29;20519;-72
2022/11/14 00:34:17;;;;;;;6.20;4.30;;;;;;;;;;4802019;29;20523;-72
2022/11/14 00:37:06;;;;;;;5.00;3.67;;;;;;;;;;4798716;29;20062;-71
2022/11/14 00:39:55;;;;;;;6.25;4.43;;;;;;;;;;4802590;29;20063;-73
2022/11/14 00:42:43;;;;;;;5.75;4.43;;;;;;;;;;4802801;29;20059;-72
2022/11/14 00:45:31;;;;;;;7.20;4.47;;;;;;;;;;4800772;29;20039;-73
2022/11/14 00:48:20;;;;;;;5.97;4.15;;;;;;;;;;4804851;29;20071;-72
2022/11/14 00:51:08;;;;;;;5.40;4.68;;;;;;;;;;4802079;29;20051;-73
2022/11/14 00:53:57;;;;;;;6.22;4.30;;;;;;;;;;4800350;29;20570;-72
2022/11/14 00:56:45;;;;;;;7.22;4.28;;;;;;;;;;4803737;29;20055;-72
2022/11/14 00:59:34;;;;;;;7.78;5.22;;;;;;;;;;4801341;29;20054;-72
2022/11/14 01:02:23;;;;;;;6.53;4.68;;;;;;;;;;4800441;29;20058;-72
2022/11/14 01:05:11;;;;;;;5.60;4.88;;;;;;;;;;4803560;29;20055;-72
2022/11/14 01:07:59;;;;;;;7.53;4.57;;;;;;;;;;4801709;29;20507;-72
2022/11/14 01:10:50;;;;;;;5.70;4.50;;;;;;;;;;4799846;29;20062;-72
2022/11/14 01:13:39;;;;;;;7.30;4.63;;;;;;;;;;4803353;29;20411;-72
2022/11/14 01:16:27;;;;;;;5.97;4.15;;;;;;;;;;4801366;29;20047;-72
2022/11/14 01:19:16;;;;;;;6.63;5.10;;;;;;;;;;4805357;29;20407;-71
2022/11/14 01:22:04;;;;;;;6.90;3.72;;;;;;;;;;4802677;29;20055;-72
2022/11/14 01:24:54;;;;;;;5.18;4.53;;;;;;;;;;4800842;29;20042;-71
2022/11/14 01:27:42;;;;;;;6.18;5.00;;;;;;;;;;4802195;29;20480;-72
2022/11/14 01:30:30;;;;;;;;;;;;;;;;;;4803164;29;20050;-72
2022/11/14 01:33:18;;;;;;;6.60;4.32;;;;;;;;;;4800862;29;20468;-72
2022/11/14 01:36:07;;;;;;;14.18;5.20;;;;;;;;;;4804159;29;20510;-71
2022/11/14 01:38:55;;;;;;;5.45;4.35;;;;;;;;;;4801058;29;20059;-72
2022/11/14 01:41:43;;;;;;;6.95;5.15;;;;;;;;;;4800231;29;20043;-71
2022/11/14 01:44:43;;;;;;;6.70;4.38;;;;;;;;;;4803616;29;20515;-71
2022/11/14 01:47:33;;;;;;;10.35;5.18;;;;;;;;;;4801243;29;20059;-72
2022/11/14 01:50:21;;;;;;;7.18;4.00;;;;;;;;;;4799688;29;20058;-72
2022/11/14 01:53:09;;;;;;;8.52;5.28;;;;;;;;;;4801819;29;20054;-71
2022/11/14 01:56:02;;;;;;;5.47;4.60;;;;;;;;;;4801230;29;20058;-72
2022/11/14 01:58:59;;;;;;;6.57;4.85;;;;;;;;;;4804567;29;20043;-71
2022/11/14 02:01:50;;;;;;;7.05;4.97;;;;;;;;;;4802548;29;20059;-72
2022/11/14 02:04:43;;;;;;;6.43;5.18;;;;;;;;;;4802925;29;20066;-75
2022/11/14 02:07:35;;;;;;;6.95;4.90;;;;;;;;;;4807589;29;20058;-72
2022/11/14 02:10:23;;;;;;;7.05;5.03;;;;;;;;;;4805192;29;20047;-71
2022/11/14 02:13:13;;;;;;;7.15;4.95;;;;;;;;;;4802872;29;20158;-71
2022/11/14 02:16:02;;;;;;;6.72;5.38;;;;;;;;;;4806631;29;20043;-71
2022/11/14 02:18:50;;;;;;;7.43;5.07;;;;;;;;;;4804908;29;20062;-72
2022/11/14 02:21:38;;;;;;;6.28;5.45;;;;;;;;;;4802281;29;20055;-72
2022/11/14 02:24:28;;;;;;;6.75;5.32;;;;;;;;;;4806395;29;20058;-72
2022/11/14 02:27:16;;;;;;;7.43;4.57;;;;;;;;;;4803872;29;20055;-70
2022/11/14 02:30:17;;;;;;;8.73;5.45;;;;;;;;;;4806520;29;20391;-72
2022/11/14 02:33:04;;;;;;;9.30;4.97;;;;;;;;;;4805664;29;20534;-71
2022/11/14 02:35:57;;;;;;;5.78;4.85;;;;;;;;;;4803011;29;20491;-72
2022/11/14 02:38:45;;;;;;;7.57;4.68;;;;;;;;;;4806664;29;20051;-72
2022/11/14 02:41:34;;;;;;;6.80;4.35;;;;;;;;;;4805061;29;20422;-72
2022/11/14 02:44:22;;;;;;;8.93;5.85;;;;;;;;;;4802939;29;20059;-71
2022/11/14 02:47:10;;;;;;;9.07;5.30;;;;;;;;;;4806124;29;20046;-72
2022/11/14 02:49:58;;;;;;;6.10;5.25;;;;;;;;;;4804049;29;20046;-72
2022/11/14 02:52:47;;;;;;;8.02;4.50;;;;;;;;;;4801970;29;20059;-72
2022/11/14 02:55:35;;;;;;;9.13;4.82;;;;;;;;;;4806371;29;20058;-72
2022/11/14 02:58:23;;;;;;;5.88;4.32;;;;;;;;;;4804120;29;20507;-72
2022/11/14 03:01:12;;;;;;;6.10;5.13;;;;;;;;;;4808116;29;20050;-71
2022/11/14 03:04:07;;;;;;;7.03;4.68;;;;;;;;;;4804941;29;20059;-72
2022/11/14 03:06:55;;;;;;;7.28;4.30;;;;;;;;;;4802753;29;20058;-71
2022/11/14 03:09:44;;;;;;;7.07;4.22;;;;;;;;;;4806689;29;20059;-72
2022/11/14 03:12:33;;;;;;;6.35;4.40;;;;;;;;;;4805719;29;20066;-71
2022/11/14 03:15:21;;;;;;;5.80;4.25;;;;;;;;;;4802485;29;20055;-72
2022/11/14 03:18:09;;;;;;;9.27;4.57;;;;;;;;;;4806419;29;20502;-72
2022/11/14 03:21:05;;;;;;;8.30;3.53;;;;;;;;;;4804021;29;20055;-72
2022/11/14 03:23:53;;;;;;;9.10;4.40;;;;;;;;;;4802309;29;20043;-72
2022/11/14 03:26:41;;;;;;;5.90;3.88;;;;;;;;;;4805387;29;20059;-72
2022/11/14 03:29:30;;;;;;;5.07;3.55;;;;;;;;;;4803690;29;20058;-71
2022/11/14 03:32:18;;;;;;;6.13;4.07;;;;;;;;;;4801803;29;20054;-71
2022/11/14 03:35:07;;;;;;;4.65;3.50;;;;;;;;;;4805725;29;20054;-72
2022/11/14 03:37:56;;;;;;;4.60;4.05;;;;;;;;;;4803408;29;20067;-71
2022/11/14 03:40:43;;;;;;;;;;;;;;;;;;4801665;29;20043;-72
2022/11/14 03:43:33;;;;;;;4.70;3.60;;;;;;;;;;4804820;29;19925;-72
2022/11/14 03:46:21;;;;;;;5.10;3.20;;;;;;;;;;4802942;29;20059;-72
2022/11/14 03:49:09;;;;;;;7.10;3.45;;;;;;;;;;4801290;29;20055;-72
2022/11/14 03:51:58;;;;;;;4.85;3.67;;;;;;;;;;4804745;29;20051;-72
2022/11/14 03:54:46;;;;;;;6.15;3.20;;;;;;;;;;4802871;29;20051;-72
2022/11/14 03:57:34;;;;;;;6.32;3.65;;;;;;;;;;4806014;29;20077;-72
2022/11/14 04:00:22;;;;;;;7.00;2.95;;;;;;;;;;4804146;29;20058;-71
2022/11/14 04:03:18;;;;;;;7.75;3.58;;;;;;;;;;4802502;29;20050;-72
2022/11/14 04:06:06;;;;;;;6.00;2.97;;;;;;;;;;4805466;29;20059;-72
2022/11/14 04:08:55;;;;;;;4.82;2.90;;;;;;;;;;4804020;29;20058;-71
2022/11/14 04:11:43;;;;;;;5.72;2.80;;;;;;;;;;4801583;29;20063;-72
2022/11/14 04:14:32;;;;;;;4.13;3.10;;;;;;;;;;4805136;29;20476;-71
2022/11/14 04:17:20;;;;;;;6.20;4.03;;;;;;;;;;4803842;29;20058;-72
2022/11/14 04:20:08;;;;;;;4.13;3.17;;;;;;;;;;4801024;29;20499;-71
2022/11/14 04:22:59;;;;;;;5.55;3.33;;;;;;;;;;4804939;29;20448;-71
2022/11/14 04:25:48;;;;;;;4.05;2.95;;;;;;;;;;4802439;29;20055;-72
2022/11/14 04:28:36;;;;;;;4.65;3.10;;;;;;;;;;4800539;29;20051;-72
2022/11/14 04:31:24;;;;;;;6.30;3.42;;;;;;;;;;4804368;29;20042;-72
2022/11/14 04:34:13;;;;;;;7.28;2.80;;;;;;;;;;4802857;29;20062;-72
2022/11/14 04:37:05;;;;;;;4.07;2.97;;;;;;;;;;4800090;29;20059;-73
2022/11/14 04:39:57;;;;;;;5.22;3.05;;;;;;;;;;4803392;29;20055;-70
2022/11/14 04:42:45;;;;;;;4.15;2.55;;;;;;;;;;4801638;29;20051;-69
2022/11/14 04:45:34;;;;;;;5.18;2.88;;;;;;;;;;4805248;29;20054;-70
2022/11/14 04:48:22;;;;;;;7.00;3.45;;;;;;;;;;4803224;29;20050;-70
2022/11/14 04:51:11;;;;;;;5.53;3.10;;;;;;;;;;4801700;29;20062;-70
2022/11/14 04:53:59;;;;;;;6.13;2.83;;;;;;;;;;4804826;29;20414;-70
2022/11/14 04:56:48;;;;;;;4.20;2.90;;;;;;;;;;4801740;29;20055;-70
2022/11/14 04:59:36;;;;;;;4.53;2.90;;;;;;;;;;4801351;29;20055;-71
2022/11/14 05:02:25;;;;;;;4.28;2.75;;;;;;;;;;4804555;29;20046;-70
2022/11/14 05:05:15;;;;;;;4.47;2.60;;;;;;;;;;4802806;29;20051;-70
2022/11/14 05:08:03;;;;;;;4.30;2.72;;;;;;;;;;4801155;29;20062;-71
2022/11/14 05:10:51;;;;;;;4.95;2.85;;;;;;;;;;4804059;29;20047;-71
2022/11/14 05:13:40;;;;;;;7.38;2.50;;;;;;;;;;4802336;29;20063;-68
2022/11/14 05:16:28;;;;;;;5.60;2.97;;;;;;;;;;4800255;29;20047;-72
2022/11/14 05:19:16;;;;;;;6.65;3.08;;;;;;;;;;4804296;29;20059;-70
2022/11/14 05:22:04;;;;;;;3.78;3.08;;;;;;;;;;4801716;29;20054;-71
2022/11/14 05:24:52;;;;;;;5.15;2.33;;;;;;;;;;4799682;29;20525;-71
2022/11/14 05:27:41;;;;;;;3.35;2.85;;;;;;;;;;4801671;29;20067;-70
2022/11/14 05:30:30;;;;;;;4.28;2.20;;;;;;;;;;4801186;29;20567;-72
2022/11/14 05:33:17;;;;;;;6.85;2.78;;;;;;;;;;4799383;29;20047;-71
2022/11/14 05:36:09;;;;;;;;;;;;;;;;;;4804548;29;20059;-71
2022/11/14 05:38:58;;;;;;;;;;;;;;;;;;4803576;29;19921;-71
2022/11/14 05:41:46;;;;;;;3.03;1.95;;;;;;;;;;4808669;29;19925;-71
2022/11/14 05:44:34;;;;;;;3.22;1.80;;;;;;;;;;4806467;29;20051;-71
2022/11/14 05:47:23;;;;;;;3.58;2.08;;;;;;;;;;4804602;29;20657;-71
2022/11/14 05:50:11;;;;;;;5.13;2.25;;;;;;;;;;4808207;29;20051;-71
2022/11/14 05:52:59;;;;;;;2.45;1.95;;;;;;;;;;4806682;29;20054;-71
2022/11/14 05:55:47;;;;;;;2.72;2.30;;;;;;;;;;4804047;29;20039;-71
2022/11/14 05:58:36;;;;;;;7.00;2.33;;;;;;;;;;4807396;29;20051;-71
2022/11/14 06:01:26;;;;;;;2.45;2.13;;;;;;;;;;4805139;29;20062;-71
2022/11/14 06:04:14;;;;;;;2.53;2.03;;;;;;;;;;4804084;29;20482;-72
2022/11/14 06:07:03;;;;;;;3.70;1.95;;;;;;;;;;4807502;29;20059;-71
2022/11/14 06:09:51;;;;;;;2.80;2.00;;;;;;;;;;4805633;29;20050;-71
2022/11/14 06:12:39;;;;;;;;;;;;;;;;;;4804364;29;20427;-71
2022/11/14 06:15:27;;;;;;;5.72;2.10;;;;;;;;;;4806904;29;19925;-72
2022/11/14 06:18:16;;;;;;;2.83;2.17;;;;;;;;;;4804851;29;20055;-72
2022/11/14 06:21:07;;;;;;;2.63;2.10;;;;;;;;;;4802760;29;20062;-72
2022/11/14 06:23:55;;;;;;;3.25;2.35;;;;;;;;;;4806275;29;20055;-71
2022/11/14 06:26:43;;;;;;;3.55;2.35;;;;;;;;;;4804723;29;20063;-73
2022/11/14 06:29:31;;;;;;;4.13;2.35;;;;;;;;;;4803125;29;20517;-71
2022/11/14 06:32:21;;;;;;;7.00;2.97;;;;;;;;;;4806054;29;20046;-73
2022/11/14 06:35:11;;;;;;;8.50;2.92;;;;;;;;;;4804449;29;20063;-72
2022/11/14 06:38:00;;;;;;;4.00;3.08;;;;;;;;;;4802534;29;20050;-72
2022/11/14 06:40:47;;;;;;;5.35;3.33;;;;;;;;;;4803146;29;20043;-72
2022/11/14 06:43:38;;;;;;;9.55;3.55;;;;;;;;;;4804051;29;20055;-72
2022/11/14 06:46:26;;;;;;;5.13;2.92;;;;;;;;;;4806899;29;20398;-72
2022/11/14 06:49:15;;;;;;;4.00;2.92;;;;;;;;;;4804594;29;20518;-71
2022/11/14 06:52:03;;;;;;;4.60;3.38;;;;;;;;;;4803191;29;20059;-71
2022/11/14 06:54:52;;;;;;;7.32;3.38;;;;;;;;;;4806744;29;20066;-72
2022/11/14 06:57:40;;;;;;;4.03;2.70;;;;;;;;;;4804747;29;20055;-71
2022/11/14 07:00:28;;;;;;;7.10;2.50;;;;;;;;;;4803359;29;20491;-71
2022/11/14 07:03:16;;;;;;;4.10;2.92;;;;;;;;;;4806922;29;20054;-71
2022/11/14 07:06:05;;;;;;;3.15;1.80;;;;;;;;;;4804444;29;20081;-71
2022/11/14 07:08:55;;;;;;;2.97;2.30;;;;;;;;;;4802572;29;20058;-72
2022/11/14 07:11:45;;;;;;;2.50;1.50;;;;;;;;;;4806112;29;20059;-72
2022/11/14 07:14:33;;;;;;;1.95;1.20;;;;;;;;;;4804493;29;20047;-72
2022/11/14 07:17:21;;;;;;;5.50;1.80;;;;;;;;;;4802354;29;20051;-71
2022/11/14 07:20:19;;;;;;;3.92;1.48;;;;;;;;;;4805414;29;20039;-71
2022/11/14 07:23:07;;;;;;;3.45;1.52;;;;;;;;;;4803221;29;20043;-72
2022/11/14 07:25:59;;;;;;;1.92;1.30;;;;;;;;;;4806684;29;20063;-72
2022/11/14 07:28:48;;;;;;;1.60;1.30;;;;;;;;;;4804884;29;20050;-72
2022/11/14 07:31:41;;;;;;;1.50;1.40;;;;;;;;;;4802843;29;20586;-72
2022/11/14 07:34:30;;;;;;;3.53;1.45;;;;;;;;;;4806155;29;20051;-72
2022/11/14 07:37:18;;;;;;;8.02;1.60;;;;;;;;;;4804449;29;20051;-72
2022/11/14 07:40:07;;;;;;;3.08;1.80;;;;;;;;;;4801058;29;20367;-72
2022/11/14 07:43:00;;;;;;;2.42;1.30;;;;;;;;;;4805658;29;20050;-72
2022/11/14 07:45:48;;;;;;;4.10;1.42;;;;;;;;;;4803361;29;20059;-72
2022/11/14 07:48:36;;;;;;;2.28;1.30;;;;;;;;;;4801423;29;20047;-72
2022/11/14 07:51:25;;;;;;;2.17;1.10;;;;;;;;;;4804977;29;20059;-72
2022/11/14 07:54:13;;;;;;;;;;;;;;;;;;4803616;29;20542;-73
2022/11/14 07:57:01;;;;;;;2.58;1.25;;;;;;;;;;4801426;29;19925;-73
2022/11/14 07:59:48;;;;;;;;;;;;;;;;;;4805183;29;20055;-72
2022/11/14 08:02:36;;;;;;;4.07;1.30;;;;;;;;;;4802497;29;20385;-73
2022/11/14 08:05:24;;;;;;;;;;;;;;;;;;4801439;29;20059;-72
2022/11/14 08:08:12;;;;;;;1.42;0.90;;;;;;;;;;4803818;29;19925;-72
2022/11/14 08:11:00;;;;;;;0.77;0.70;;;;;;;;;;4803047;29;20514;-72
2022/11/14 08:13:49;;;;;;;6.30;2.15;;;;;;;;;;4805971;29;20054;-73
2022/11/14 08:16:37;;;;;;;1.85;1.15;;;;;;;;;;4803986;29;20059;-73
2022/11/14 08:19:26;;;;;;;3.33;1.15;;;;;;;;;;4802349;29;20062;-72
2022/11/14 08:22:14;;;;;;;2.42;1.40;;;;;;;;;;4805917;29;20047;-72
2022/11/14 08:25:03;;;;;;;0.93;0.65;;;;;;;;;;4803731;29;20054;-72
2022/11/14 08:27:52;;;;;;;1.10;0.98;;;;;;;;;;4801624;29;20063;-72
2022/11/14 08:30:45;;;;;;;1.17;1.08;;;;;;;;;;4804908;29;20059;-72
2022/11/14 08:33:33;;;;;;;1.30;1.10;;;;;;;;;;4802848;29;20051;-73
2022/11/14 08:36:21;;;;;;;1.85;1.20;;;;;;;;;;4801072;29;20054;-72
2022/11/14 08:39:10;;;;;;;6.68;1.08;;;;;;;;;;4804437;29;20043;-72
2022/11/14 08:41:58;;;;;;;4.85;1.13;;;;;;;;;;4802044;29;20059;-72
2022/11/14 08:44:46;;;;;;;1.30;0.90;;;;;;;;;;4801433;29;20047;-72
2022/11/14 08:47:38;;;;;;;2.03;1.10;;;;;;;;;;4803997;29;20063;-73
2022/11/14 08:50:26;;;;;;;3.70;1.40;;;;;;;;;;4801588;29;20062;-72
2022/11/14 08:53:14;;;;;;;3.13;1.20;;;;;;;;;;4800539;29;20055;-72
2022/11/14 08:56:02;;;;;;;;;;;;;;;;;;4803412;29;20054;-73
2022/11/14 08:58:50;;;;;;;1.83;1.02;;;;;;;;;;4801902;29;19925;-72
2022/11/14 09:01:37;;;;;;;;;;;;;;;;;;4801618;29;20055;-73
2022/11/14 09:04:25;;;;;;;1.98;0.93;;;;;;;;;;4802869;29;20262;-73
2022/11/14 09:07:14;;;;;;;2.78;1.77;;;;;;;;;;4801734;29;20055;-72
2022/11/14 09:10:04;;;;;;;4.88;1.77;;;;;;;;;;4804776;29;20050;-72
2022/11/14 09:12:57;;;;;;;2.55;1.60;;;;;;;;;;4802333;29;20051;-72
2022/11/14 09:15:45;;;;;;;2.33;1.55;;;;;;;;;;4801223;29;20055;-72
2022/11/14 09:18:34;;;;;;;2.35;1.70;;;;;;;;;;4804715;29;20039;-72
2022/11/14 09:21:22;;;;;;;2.33;1.33;;;;;;;;;;4802686;29;20059;-75
2022/11/14 09:24:10;;;;;;;4.20;1.80;;;;;;;;;;4800522;29;20054;-72
2022/11/14 09:26:58;;;;;;;2.90;1.98;;;;;;;;;;4803400;29;20047;-72
2022/11/14 09:29:46;;;;;;;2.92;2.33;;;;;;;;;;4801532;29;20151;-72
2022/11/14 09:32:34;;;;;;;5.32;2.30;;;;;;;;;;4800346;29;20055;-72
2022/11/14 09:35:22;;;;;;;3.03;2.40;;;;;;;;;;4804373;29;20055;-71
2022/11/14 09:38:11;;;;;;;8.18;2.15;;;;;;;;;;4802398;29;20055;-72
2022/11/14 09:41:25;;;;;;;3.58;2.40;;;;;;;;;;4799283;29;20055;-72
2022/11/14 09:44:32;;;;;;;3.63;2.45;;;;;;;;;;4802947;29;20499;-72
2022/11/14 09:47:37;;;;;;;5.45;2.00;;;;;;;;;;4799723;29;20050;-74
2022/11/14 09:50:31;;;;;;;5.43;2.75;;;;;;;;;;4802859;29;20059;-73
2022/11/14 09:53:29;;;;;;;3.33;2.30;;;;;;;;;;4801131;29;20399;-72
2022/11/14 09:56:24;;;;;;;2.58;2.10;;;;;;;;;;4802762;29;20050;-72
2022/11/14 09:59:13;;;;;;;3.72;1.90;;;;;;;;;;4801951;29;20438;-72
2022/11/14 10:02:13;;;;;;;3.13;2.05;;;;;;;;;;4799230;29;20062;-72
2022/11/14 10:05:08;;;;;;;3.75;1.80;;;;;;;;;;4802689;29;20419;-72
2022/11/14 10:07:56;;;;;;;3.08;2.00;;;;;;;;;;4800106;29;20067;-73
2022/11/14 10:10:46;;;;;;;;;;;;;;;;;;4804290;29;20055;-72
2022/11/14 10:14:02;;;;;;;7.28;2.95;;;;;;;;;;4802323;29;19921;-71
2022/11/14 10:17:06;;;;;;;6.53;1.70;;;;;;;;;;4804032;29;20047;-73
2022/11/14 10:20:07;;;;;;;3.60;1.80;;;;;;;;;;4801886;29;20051;-73
2022/11/14 10:23:04;;;;;;;2.92;2.35;;;;;;;;;;4798371;29;20046;-73
2022/11/14 10:26:31;;;;;;;2.67;2.30;;;;;;;;;;4805364;29;20094;-73
2022/11/14 10:29:50;;;;;;;3.75;1.73;;;;;;;;;;4841832;29;20061;-73
2022/11/14 10:33:23;;;;;;;5.03;1.83;;;;;;;;;;4833557;29;20062;-73
2022/11/14 10:36:34;;;;;;;8.35;2.30;;;;;;;;;;4775662;29;20052;-73
2022/11/14 10:39:31;;;;;;;2.63;2.10;;;;;;;;;;4765877;30;20060;-73
2022/11/14 10:42:32;;;;;;;3.17;2.33;;;;;;;;;;4769969;30;20056;-73
2022/11/14 10:45:37;;;;;;;5.82;2.90;;;;;;;;;;4767745;30;20051;-73
2022/11/14 10:48:33;;;;;;;4.38;2.58;;;;;;;;;;4770766;30;20055;-73
2022/11/14 11:04:26;;;;;;;2.58;2.00;;;;;;;;;;5124254;27;20480;-75
2022/11/14 11:13:55;;;;;;;3.17;2.13;;;;;;;;;;5125854;27;20051;-74
2022/11/14 11:16:45;;;;;;;4.20;2.17;;;;;;;;;;5127429;27;20043;-75
2022/11/14 11:19:34;;;;;;;7.65;2.70;;;;;;;;;;5125542;27;20513;-80
2022/11/14 11:22:38;;;;;;;6.47;2.53;;;;;;;;;;5129356;27;20513;-75
2022/11/14 11:25:29;;;;;;;4.72;1.52;;;;;;;;;;5126407;27;20051;-77
2022/11/14 11:28:21;;;;;;;2.90;1.10;;;;;;;;;;5124222;27;20059;-74
2022/11/14 11:31:10;;;;;;;1.60;0.85;;;;;;;;;;5127654;27;20477;-75
2022/11/14 11:34:03;;;;;;;3.45;1.00;;;;;;;;;;5125024;27;20508;-74
2022/11/14 11:37:09;;;;;;;1.20;0.82;;;;;;;;;;5129837;27;20523;-74
2022/11/14 11:40:13;;;;;;;1.63;0.95;;;;;;;;;;5126713;27;20051;-73
2022/11/14 11:43:15;;;;;;;4.05;2.53;;;;;;;;;;5123687;27;20048;-73
2022/11/14 11:46:44;;;;;;;1.33;0.90;;;;;;;;;;5125295;27;20520;-74
2022/11/14 11:49:42;;;;;;;1.67;1.10;;;;;;;;;;5127793;27;20051;-74
2022/11/14 11:52:44;;;;;;;1.73;1.02;;;;;;;;;;5125948;27;20059;-72
2022/11/14 11:55:35;;;;;;;1.48;1.02;;;;;;;;;;5129093;27;20413;-73
2022/11/14 11:58:26;;;;;;;1.42;1.05;;;;;;;;;;5127499;27;20047;-74
2022/11/14 12:01:16;;;;;;;1.20;1.10;;;;;;;;;;5122772;28;20055;-73
2022/11/14 12:04:04;;;;;;;1.60;1.10;;;;;;;;;;5115476;28;20425;-72
2022/11/14 12:07:14;;;;;;;1.42;1.17;;;;;;;;;;5112254;28;20047;-73
2022/11/14 12:10:16;;;;;;;4.80;1.23;;;;;;;;;;5109145;28;20501;-73
2022/11/14 12:13:20;;;;;;;2.42;1.20;;;;;;;;;;5111896;28;20055;-74
2022/11/14 12:16:45;;;;;;;1.65;1.02;;;;;;;;;;5109520;28;20043;-73
2022/11/14 12:19:54;;;;;;;1.85;1.08;;;;;;;;;;5111710;28;20056;-74
2022/11/14 12:23:14;;;;;;;2.20;1.10;;;;;;;;;;5115216;28;20039;-72
2022/11/14 12:26:33;;;;;;;1.73;1.23;;;;;;;;;;5111581;28;21078;-72
2022/11/14 12:29:44;;;;;;;0.70;0.70;;;;;;;;;;5113556;28;20055;-73
2022/11/14 12:32:57;;;;;;;1.50;1.40;;;;;;;;;;5108823;28;20052;-75
2022/11/14 12:35:52;;;;;;;1.00;0.88;;;;;;;;;;5108888;28;20047;-74
2022/11/14 12:38:48;;;;;;;1.42;0.90;;;;;;;;;;5110460;28;20063;-74
2022/11/14 12:41:38;;;;;;;1.02;0.93;;;;;;;;;;5113785;28;20498;-72
2022/11/14 12:44:26;;;;;;;2.17;1.00;;;;;;;;;;5108774;28;20044;-73
2022/11/14 12:47:20;;;;;;;1.25;0.93;;;;;;;;;;5108689;28;20051;-72
2022/11/14 12:50:43;;;;;;;8.40;3.30;;;;;;;;;;5108757;28;20047;-74
2022/11/14 12:53:36;;;;;;;1.92;0.82;;;;;;;;;;5108183;28;20047;-74
2022/11/14 12:56:31;;;;;;;1.52;1.20;;;;;;;;;;5113433;28;20047;-73
2022/11/14 12:59:44;;;;;;;0.73;0.70;;;;;;;;;;5111192;28;20044;-74
2022/11/14 13:02:55;;;;;;;1.30;0.82;;;;;;;;;;5112617;28;20056;-72
2022/11/14 13:06:01;;;;;;;1.45;0.95;;;;;;;;;;5109678;28;20048;-75
2022/11/14 13:08:58;;;;;;;;;;;;;;;;;;5114018;28;20047;-77
2022/11/14 13:21:44;;;;;;;1.80;0.90;;;;;;;;;;5112155;28;20056;-73
2022/11/14 13:24:58;;;;;;;2.78;0.95;;;;;;;;;;5109231;28;20040;-74
2022/11/14 13:27:47;;;;;;;6.28;1.20;;;;;;;;;;5111776;28;20067;-77
2022/11/14 13:31:15;;;;;;;0.73;0.73;;;;;;;;;;5107514;28;20043;-74
2022/11/14 13:34:32;;;;;;;0.70;0.70;;;;;;;;;;5111979;28;20051;-75
2022/11/14 13:37:57;;;;;;;3.22;0.75;;;;;;;;;;5108419;28;20410;-73
2022/11/14 13:41:22;;;;;;;3.05;0.90;;;;;;;;;;5110709;28;20433;-76
2022/11/14 13:45:16;;;;;;;1.40;0.80;;;;;;;;;;5112667;28;20368;-76
2022/11/14 13:48:23;;;;;;;6.15;1.50;;;;;;;;;;5065526;28;20503;-72
2022/11/14 13:51:16;;;;;;;4.45;0.82;;;;;;;;;;5067284;28;20052;-72
2022/11/14 13:54:25;;;;;;;3.33;1.10;;;;;;;;;;5113495;28;20059;-75
2022/11/14 13:57:26;;;;;;;3.38;1.13;;;;;;;;;;5113152;28;20048;-73
2022/11/14 14:00:17;;;;;;;1.25;1.10;;;;;;;;;;5107817;28;20421;-73
2022/11/14 14:03:22;;;;;;;2.00;0.88;;;;;;;;;;5109778;28;20055;-75
2022/11/14 14:06:30;;;;;;;2.15;0.90;;;;;;;;;;5108957;28;20060;-75
2022/11/14 14:09:18;;;;;;;1.77;0.80;;;;;;;;;;5111932;28;20051;-73
2022/11/14 14:12:15;;;;;;;1.38;0.88;;;;;;;;;;5110324;28;20052;-75
2022/11/14 14:15:43;;;;;;;1.08;0.80;;;;;;;;;;5112829;28;20662;-75
2022/11/14 14:18:44;;;;;;;1.45;1.10;;;;;;;;;;5109270;28;20051;-78
2022/11/14 14:21:41;;;;;;;1.58;1.13;;;;;;;;;;5111335;28;20055;-74
2022/11/14 14:24:47;;;;;;;2.70;1.10;;;;;;;;;;5109212;28;20589;-76
2022/11/14 14:28:03;;;;;;;1.35;1.02;;;;;;;;;;5106596;28;20604;-73
2022/11/14 14:31:35;;;;;;;1.73;1.05;;;;;;;;;;5109595;28;20060;-74
2022/11/14 14:34:24;;;;;;;2.17;1.00;;;;;;;;;;5082200;28;20063;-73
2022/11/14 14:37:20;;;;;;;1.38;1.00;;;;;;;;;;5108807;28;20437;-73
2022/11/14 14:40:26;;;;;;;1.02;0.93;;;;;;;;;;5106996;28;20052;-73
2022/11/14 14:43:33;;;;;;;3.83;1.35;;;;;;;;;;5109002;28;20060;-76
2022/11/14 14:46:32;;;;;;;0.90;0.77;;;;;;;;;;5107216;28;20044;-75
2022/11/14 14:49:34;;;;;;;1.45;0.88;;;;;;;;;;5109989;28;20055;-76
2022/11/14 14:52:42;;;;;;;3.25;1.23;;;;;;;;;;5106625;28;20039;-76
2022/11/14 14:55:33;;;;;;;1.73;1.02;;;;;;;;;;5109707;28;20055;-74
2022/11/14 14:58:21;;;;;;;1.30;1.00;;;;;;;;;;5107946;28;20044;-74
2022/11/14 15:01:16;;;;;;;2.13;0.93;;;;;;;;;;5111438;28;20055;-71
2022/11/14 15:04:11;;;;;;;1.73;1.15;;;;;;;;;;5106595;28;20048;-74
2022/11/14 15:07:00;;;;;;;1.48;1.13;;;;;;;;;;5106631;28;20498;-73
2022/11/14 15:09:59;;;;;;;2.72;1.10;;;;;;;;;;5106163;28;20043;-73
2022/11/14 15:12:49;;;;;;;2.22;1.30;;;;;;;;;;5108542;28;20052;-74
2022/11/14 15:15:38;;;;;;;1.33;1.10;;;;;;;;;;5112385;28;20378;-72
2022/11/14 15:18:30;;;;;;;3.60;1.52;;;;;;;;;;5109651;28;20067;-72
2022/11/14 15:21:26;;;;;;;1.48;1.13;;;;;;;;;;5107339;28;20040;-73
2022/11/14 15:24:19;;;;;;;3.88;1.30;;;;;;;;;;5111072;28;20051;-71
2022/11/14 15:27:16;;;;;;;;;;;;;;;;;;5109154;28;20052;-73
2022/11/14 15:30:18;;;;;;;1.33;1.00;;;;;;;;;;5106944;28;19920;-73
2022/11/14 15:33:28;;;;;;;2.30;1.40;;;;;;;;;;5109940;28;20040;-73
2022/11/14 15:36:17;;;;;;;5.25;1.50;;;;;;;;;;5107211;28;20056;-75
2022/11/14 15:39:28;;;;;;;1.08;0.93;;;;;;;;;;5111575;28;20040;-75
2022/11/14 15:42:28;;;;;;;1.30;0.98;;;;;;;;;;5110203;28;20055;-74
2022/11/14 15:45:28;;;;;;;1.58;1.00;;;;;;;;;;5114343;28;20051;-79
2022/11/14 15:48:18;;;;;;;1.70;0.98;;;;;;;;;;5111314;28;20429;-73
2022/11/14 15:51:06;;;;;;;2.25;1.30;;;;;;;;;;5115246;28;20052;-72
2022/11/14 15:53:55;;;;;;;1.15;0.82;;;;;;;;;;5109931;28;20051;-74
2022/11/14 15:56:44;;;;;;;2.58;1.30;;;;;;;;;;5111039;28;20434;-72
2022/11/14 15:59:33;;;;;;;3.75;0.90;;;;;;;;;;5110031;28;20522;-72
2022/11/14 16:02:27;;;;;;;1.63;0.93;;;;;;;;;;5112859;28;20060;-73
2022/11/14 16:05:18;;;;;;;3.22;1.20;;;;;;;;;;5111287;28;20056;-79
2022/11/14 16:08:12;;;;;;;3.47;1.30;;;;;;;;;;5113963;28;20039;-71
2022/11/14 16:11:00;;;;;;;;;;;;;;;;;;5111623;28;20059;-73
2022/11/14 16:13:48;;;;;;;1.30;0.90;;;;;;;;;;5114613;28;19923;-75
2022/11/14 16:16:37;;;;;;;1.02;0.93;;;;;;;;;;5113001;28;20056;-73
2022/11/14 16:19:26;;;;;;;0.85;0.77;;;;;;;;;;5111169;28;20055;-74
2022/11/14 16:22:17;;;;;;;1.33;0.90;;;;;;;;;;5114550;28;20051;-72
2022/11/14 16:25:09;;;;;;;4.63;1.27;;;;;;;;;;5112726;28;20052;-74
2022/11/14 16:27:58;;;;;;;1.23;0.65;;;;;;;;;;5110548;28;20048;-72
2022/11/14 16:30:47;;;;;;;1.92;1.00;;;;;;;;;;5109084;28;20047;-72
2022/11/14 16:33:36;;;;;;;0.90;0.70;;;;;;;;;;5112309;28;20060;-72
2022/11/14 16:36:25;;;;;;;2.45;1.10;;;;;;;;;;5110162;28;20048;-71
2022/11/14 16:39:13;;;;;;;1.67;0.73;;;;;;;;;;5113691;28;20051;-71
2022/11/14 16:42:02;;;;;;;1.35;1.00;;;;;;;;;;5111868;28;20043;-74
2022/11/14 16:44:50;;;;;;;0.60;0.60;;;;;;;;;;5108754;28;20510;-73
2022/11/14 16:47:39;;;;;;;1.77;0.70;;;;;;;;;;5113369;28;20043;-72
2022/11/14 16:50:28;;;;;;;1.10;0.70;;;;;;;;;;5110909;28;20052;-72
2022/11/14 16:53:16;;;;;;;1.30;0.73;;;;;;;;;;5109575;28;20056;-74
2022/11/14 16:56:05;;;;;;;0.50;0.50;;;;;;;;;;5112345;28;20052;-72
2022/11/14 16:58:56;;;;;;;0.90;0.73;;;;;;;;;;5109682;28;20540;-72
2022/11/14 17:01:47;;;;;;;1.00;0.63;;;;;;;;;;5108803;28;20043;-73
2022/11/14 17:04:35;;;;;;;0.82;0.70;;;;;;;;;;5112007;28;20039;-74
2022/11/14 17:07:24;;;;;;;1.13;0.70;;;;;;;;;;5110020;28;20791;-72
2022/11/14 17:10:12;;;;;;;2.63;1.00;;;;;;;;;;5114188;28;20081;-73
2022/11/14 17:13:00;;;;;;;0.68;0.68;;;;;;;;;;5110353;28;20051;-73
2022/11/14 17:15:48;;;;;;;2.35;0.80;;;;;;;;;;5109671;28;20526;-79
2022/11/14 17:18:37;;;;;;;2.35;0.80;;;;;;;;;;5113601;28;20044;-73
2022/11/14 17:21:26;;;;;;;1.52;0.75;;;;;;;;;;5112383;28;20040;-73
2022/11/14 17:24:15;;;;;;;1.20;1.10;;;;;;;;;;5111009;28;20051;-73
2022/11/14 17:27:03;;;;;;;0.93;0.90;;;;;;;;;;5113577;28;20052;-72
2022/11/14 17:29:51;;;;;;;5.97;1.52;;;;;;;;;;5111388;28;20051;-73
2022/11/14 17:32:39;;;;;;;2.20;1.25;;;;;;;;;;5108692;28;20059;-72
2022/11/14 17:35:28;;;;;;;0.80;0.70;;;;;;;;;;5112716;28;20059;-73
2022/11/14 17:38:16;;;;;;;0.85;0.75;;;;;;;;;;5108496;28;20047;-73
2022/11/14 17:41:05;;;;;;;0.77;0.70;;;;;;;;;;5107549;28;20052;-72
2022/11/14 17:44:00;;;;;;;1.10;0.88;;;;;;;;;;5111177;28;20067;-73
2022/11/14 17:46:49;;;;;;;2.42;1.13;;;;;;;;;;5109916;28;20056;-73
2022/11/14 17:49:37;;;;;;;2.08;1.02;;;;;;;;;;5108186;28;20051;-73
2022/11/14 17:52:26;;;;;;;2.33;0.98;;;;;;;;;;5110965;28;20078;-74